Durham — WDF3868 — position and weather

sailwx.info

Track history (hours):
 
Tides and Currents Weather Stations Pressure Air Temp Water Temp Dewpoint Dewpoint Depression Visibility Wind Speed Wind Dir Waves Ship Positions

Durham

Owner: KEN'S BOOMING & BOAT SERVICE, INC., BAYONNE, NJ. More information available from US FCC via Universal Licensing System and Coast Guard Vessel Documentation Center.

Last reported at 2017-Mar-08 13:33 UTC. Time now 2017-Mar-23 12:32 UTC.
Position N 40°40' W 074°04'.
Warning: this ship's position is 14 days out of date.

Length 18 m.

MMSI: 367444950.

Date/timePositionNaut miles runAvg speedWind from/ knotsBaromVisibWave heightAir tempDewpointWater temp
2017-Mar-08 13:33N 40°40' W 074°04'5 4.8
2017-Mar-08 12:33N 40°42' W 073°58'2 1.8
2017-Mar-08 11:34N 40°41' W 074°01'6 5.6
2017-Mar-08 10:33N 40°39' W 074°07'0 0.0
2017-Mar-07 20:20N 40°39' W 074°07'1 1.7
2017-Mar-07 19:31N 40°39' W 074°09'3 3.5
2017-Mar-07 18:33N 40°42' W 074°07'1 1.0
2017-Mar-07 17:33N 40°43' W 074°07'5 2.4
2017-Mar-07 15:33N 40°40' W 074°03'4 3.7
2017-Mar-07 14:33N 40°42' W 073°58'2 2.3
2017-Mar-07 13:33N 40°41' W 074°01'5 5.3
2017-Mar-07 12:33N 40°39' W 074°07'4 4.1
2017-Mar-07 11:33N 40°43' W 074°07'1 0.9
2017-Mar-07 10:33N 40°42' W 074°07'3 2.6
2017-Mar-07 09:23N 40°39' W 074°07'  
Track history (hours):
 
Tides and Currents Weather Stations Pressure Air Temp Water Temp Dewpoint Dewpoint Depression Visibility Wind Speed Wind Dir Waves Ship Positions

Durham

Owner: KEN'S BOOMING & BOAT SERVICE, INC., BAYONNE, NJ. More information available from US FCC via Universal Licensing System and Coast Guard Vessel Documentation Center.

Last reported at 2017-Mar-08 13:33 UTC. Time now 2017-Mar-23 12:32 UTC.
Position N 40°40' W 074°04'.
Warning: this ship's position is 14 days out of date.

Length 18 m.

MMSI: 367444950.

Date/timePositionNaut miles runAvg speedWind from/ knotsBaromVisibWave heightAir tempDewpointWater temp
2017-Mar-08 13:33N 40°40' W 074°04'5 4.8
2017-Mar-08 12:33N 40°42' W 073°58'2 1.8
2017-Mar-08 11:34N 40°41' W 074°01'6 5.6
2017-Mar-08 10:33N 40°39' W 074°07'0 0.0
2017-Mar-07 20:20N 40°39' W 074°07'1 1.7
2017-Mar-07 19:31N 40°39' W 074°09'3 3.5
2017-Mar-07 18:33N 40°42' W 074°07'1 1.0
2017-Mar-07 17:33N 40°43' W 074°07'5 2.4
2017-Mar-07 15:33N 40°40' W 074°03'4 3.7
2017-Mar-07 14:33N 40°42' W 073°58'2 2.3
2017-Mar-07 13:33N 40°41' W 074°01'5 5.3
2017-Mar-07 12:33N 40°39' W 074°07'4 4.1
2017-Mar-07 11:33N 40°43' W 074°07'1 0.9
2017-Mar-07 10:33N 40°42' W 074°07'3 2.6
2017-Mar-07 09:23N 40°39' W 074°07'  

Dump ship's entire track history